Time;durP1;ratioP1;P1;durP2;ratioP2;P2;SDS_P1;SDS_P2;PMS_P1;PMS_P2;Temp;Humidity;BMP_temperature;BMP_pressure;BME280_temperature;BME280_humidity;BME280_pressure;Samples;Min_cycle;Max_cycle;Signal;HPM_P1;HPM_P2
2022/06/03 00:05:48;;;;;;;9.30;4.60;;;;;;;8.29;69.69;100155.05;435090;1270;196618;-57
2022/06/03 00:16:11;;;;;;;7.20;5.60;;;;;;;8.12;69.93;100155.58;447609;1271;143197;-57
2022/06/03 00:26:48;;;;;;;8.40;5.30;;;;;;;7.99;70.47;100160.54;438176;1271;143671;-57
2022/06/03 00:37:07;;;;;;;6.00;5.30;;;;;;;7.91;70.85;100160.71;444616;1269;141599;-58
2022/06/03 00:47:31;;;;;;;7.60;4.60;;;;;;;7.76;70.89;100159.63;434391;1270;142753;-57
2022/06/03 00:57:52;;;;;;;7.50;5.30;;;;;;;7.64;71.39;100159.77;433385;1270;141370;-57
2022/06/03 01:08:07;;;;;;;17.10;6.10;;;;;;;7.47;71.81;100157.69;432895;1270;141812;-56
2022/06/03 01:18:33;;;;;;;8.40;6.10;;;;;;;7.34;72.12;100155.80;432779;1270;141264;-56
2022/06/03 01:29:05;;;;;;;7.20;5.60;;;;;;;7.18;71.98;100151.56;432560;1270;142490;-56
2022/06/03 01:39:35;;;;;;;9.00;5.50;;;;;;;7.06;72.19;100148.42;431550;1270;142683;-57
2022/06/03 01:49:57;;;;;;;10.10;5.50;;;;;;;6.94;72.21;100144.89;431921;1270;148703;-57
2022/06/03 02:00:19;;;;;;;9.50;6.40;;;;;;;6.82;72.80;100143.42;433237;1270;147313;-57
2022/06/03 02:10:54;;;;;;;12.00;7.50;;;;;;;6.73;72.94;100143.42;431252;1271;146901;-56
2022/06/03 02:21:20;;;;;;;9.40;6.50;;;;;;;6.69;73.35;100146.73;432381;1270;141389;-59
2022/06/03 02:31:36;;;;;;;17.50;7.70;;;;;;;6.66;73.19;100150.13;433384;1270;141332;-57
2022/06/03 02:42:06;;;;;;;9.00;6.80;;;;;;;6.66;73.52;100145.62;431394;1270;184457;-57
2022/06/03 02:52:44;;;;;;;10.80;6.90;;;;;;;6.73;73.68;100146.39;431436;1270;140780;-57
2022/06/03 03:03:19;;;;;;;11.60;7.20;;;;;;;7.22;73.90;100158.52;433023;1270;141730;-58
2022/06/03 03:13:51;;;;;;;10.10;6.00;;;;;;;10.85;72.60;100166.59;431539;1270;142252;-56
2022/06/03 03:24:29;;;;;;;8.80;5.20;;;;;;;13.95;65.88;100169.80;433490;1270;141533;-57
2022/06/03 03:35:04;;;;;;;8.70;5.80;;;;;;;13.20;62.76;100175.67;431637;1270;141904;-58
2022/06/03 03:45:45;;;;;;;9.50;7.10;;;;;;;12.16;63.02;100187.55;432321;1270;141907;-58
2022/06/03 03:56:53;;;;;;;9.10;8.00;;;;;;;11.59;64.73;100198.85;430441;1270;142488;-56
2022/06/03 04:07:30;;;;;;;9.00;7.20;;;;;;;18.07;62.96;100198.92;431752;1270;147575;-57
2022/06/03 04:18:15;;;;;;;8.40;5.40;;;;;;;26.04;51.49;100184.57;432552;1270;141184;-56
2022/06/03 04:28:42;;;;;;;6.10;5.60;;;;;;;30.94;42.89;100187.86;433072;1270;141036;-58
2022/06/03 04:39:02;;;;;;;;;;;;;;;34.74;36.43;100191.61;433577;1270;147030;-58
2022/06/03 04:49:57;;;;;;;6.40;4.70;;;;;;;37.18;31.55;100206.20;431554;1270;128057;-57
2022/06/03 05:00:29;;;;;;;;;;;;;;;39.98;27.58;100212.60;431891;1269;140636;-55
2022/06/03 05:11:08;;;;;;;4.10;2.70;;;;;;;41.88;24.71;100215.05;432580;1270;128547;-54
2022/06/03 05:21:38;;;;;;;6.00;3.10;;;;;;;42.66;21.94;100224.08;431820;1270;194937;-55
2022/06/03 05:32:28;;;;;;;9.50;4.40;;;;;;;44.95;20.18;100222.40;431017;1269;145000;-56
2022/06/03 05:42:44;;;;;;;2.70;2.20;;;;;;;47.53;17.69;100227.54;433924;1269;196224;-56
2022/06/03 05:53:09;;;;;;;2.10;1.90;;;;;;;49.76;16.15;100225.84;432211;1270;147641;-56
2022/06/03 06:03:26;;;;;;;5.30;3.40;;;;;;;50.96;14.62;100224.98;431552;1270;141642;-56
2022/06/03 06:13:51;;;;;;;4.20;3.30;;;;;;;52.97;13.85;100224.63;431819;1268;142640;-58
2022/06/03 06:24:05;;;;;;;32.10;7.70;;;;;;;53.78;12.49;100227.71;433387;1270;141963;-56
2022/06/03 06:34:34;;;;;;;7.20;6.50;;;;;;;54.48;11.52;100225.25;432702;1270;141546;-57
2022/06/03 06:44:51;;;;;;;17.30;7.40;;;;;;;55.19;11.18;100228.27;431952;1270;141057;-57
2022/06/03 06:55:03;;;;;;;8.20;7.90;;;;;;;55.46;10.28;100223.91;431477;1270;141117;-56
2022/06/03 07:05:13;;;;;;;11.00;10.30;;;;;;;56.40;9.65;100220.15;430720;1270;141755;-57
2022/06/03 07:15:22;;;;;;;14.60;14.10;;;;;;;57.86;8.92;100206.77;434597;1267;141228;-56
2022/06/03 07:25:32;;;;;;;17.60;17.00;;;;;;;57.42;8.38;100197.86;431376;1270;142641;-56
2022/06/03 07:35:43;;;;;;;20.90;20.10;;;;;;;57.45;8.18;100193.52;431588;1268;141444;-56
2022/06/03 07:45:53;;;;;;;7.70;7.20;;;;;;;57.88;7.75;100196.77;433644;1270;141128;-56
2022/06/03 07:55:59;;;;;;;1.70;1.40;;;;;;;53.26;8.12;100187.27;431514;1270;141494;-56
2022/06/03 08:06:06;;;;;;;3.80;1.20;;;;;;;43.45;10.74;100185.41;432332;1270;141225;-56
2022/06/03 08:16:18;;;;;;;0.50;0.50;;;;;;;37.55;13.66;100198.95;431709;1270;142499;-55
2022/06/03 08:26:26;;;;;;;2.60;0.60;;;;;;;33.37;16.21;100197.05;447226;1268;142309;-56
2022/06/03 08:36:35;;;;;;;1.20;0.60;;;;;;;31.98;18.23;100187.55;447843;1269;233365;-56
2022/06/03 08:46:46;;;;;;;1.30;0.70;;;;;;;30.15;19.14;100193.98;435554;1269;143279;-55
2022/06/03 08:56:51;;;;;;;2.50;0.90;;;;;;;28.26;21.19;100198.13;434447;1270;182096;-56
2022/06/03 09:07:04;;;;;;;2.20;0.80;;;;;;;27.32;22.16;100204.16;431217;1270;142586;-54
2022/06/03 09:17:29;;;;;;;2.20;1.40;;;;;;;27.08;22.64;100199.41;431474;1270;142421;-55
2022/06/03 09:27:34;;;;;;;2.90;0.90;;;;;;;26.20;23.07;100194.23;433914;1269;141520;-55
2022/06/03 09:37:42;;;;;;;0.60;0.60;;;;;;;25.81;24.07;100188.89;436478;1269;141846;-55
2022/06/03 09:47:46;;;;;;;0.70;0.60;;;;;;;25.53;24.71;100180.73;432420;1269;140980;-56
2022/06/03 09:57:49;;;;;;;2.20;0.80;;;;;;;24.96;24.91;100173.11;434508;1269;141670;-55
2022/06/03 10:07:59;;;;;;;1.80;0.50;;;;;;;24.59;25.93;100183.59;444847;1269;142541;-56
2022/06/03 10:18:05;;;;;;;2.30;0.90;;;;;;;24.68;26.30;100168.98;433864;1269;141313;-56
2022/06/03 10:28:12;;;;;;;0.90;0.70;;;;;;;24.32;26.73;100170.57;433893;1270;196990;-54
2022/06/03 10:38:18;;;;;;;1.90;1.10;;;;;;;23.89;27.11;100154.58;447257;1268;196055;-56
2022/06/03 10:48:24;;;;;;;0.80;0.70;;;;;;;23.41;27.89;100153.22;442019;1269;142413;-55
2022/06/03 11:08:53;;;;;;;4.30;0.80;;;;;;;22.94;28.50;100130.36;431784;1270;142188;-57
2022/06/03 11:18:57;;;;;;;0.90;0.80;;;;;;;22.89;29.23;100116.40;432135;1270;141404;-54
2022/06/03 11:29:04;;;;;;;0.60;0.60;;;;;;;22.90;29.34;100104.52;441614;1269;141044;-54
2022/06/03 11:39:15;;;;;;;1.00;0.80;;;;;;;22.93;29.60;100099.64;437302;1269;142136;-55
2022/06/03 11:49:20;;;;;;;1.00;0.90;;;;;;;23.12;29.39;100088.25;439065;1269;141521;-55
2022/06/03 11:59:31;;;;;;;1.10;0.60;;;;;;;23.10;29.53;100076.55;444272;1269;142595;-55
2022/06/03 12:09:45;;;;;;;2.00;0.70;;;;;;;23.23;29.68;100071.35;439590;1269;142517;-57
2022/06/03 12:19:50;;;;;;;1.60;1.30;;;;;;;23.42;29.56;100059.87;431076;1270;142310;-56
2022/06/03 12:30:22;;;;;;;2.00;1.40;;;;;;;23.53;29.43;100060.41;435607;1269;141928;-56
2022/06/03 12:40:34;;;;;;;1.10;1.00;;;;;;;23.56;29.86;100046.13;432784;1270;140222;-54
2022/06/03 12:51:11;;;;;;;1.90;0.80;;;;;;;23.19;30.00;100045.16;431801;1270;140807;-56
2022/06/03 13:01:31;;;;;;;0.80;0.80;;;;;;;23.30;30.22;100033.46;432554;1270;184454;-56
2022/06/03 13:11:45;;;;;;;2.30;0.80;;;;;;;23.41;29.90;100014.73;430566;1269;144104;-55
2022/06/03 13:22:07;;;;;;;5.60;0.70;;;;;;;23.49;30.22;100014.54;431752;1270;141725;-55
2022/06/03 13:32:16;;;;;;;1.30;1.10;;;;;;;23.36;30.13;100007.21;430246;1270;142251;-55
2022/06/03 13:52:51;;;;;;;3.00;1.50;;;;;;;23.28;30.38;99970.77;430046;1270;141186;-55
2022/06/03 14:03:06;;;;;;;1.30;1.20;;;;;;;23.16;30.74;99960.55;438383;1270;183063;-56
2022/06/03 14:13:22;;;;;;;1.90;0.90;;;;;;;22.97;30.73;99955.06;437333;1270;140304;-56
2022/06/03 14:23:30;;;;;;;1.50;1.00;;;;;;;22.78;31.67;99944.34;431747;1269;141473;-57
2022/06/03 14:33:42;;;;;;;1.00;0.90;;;;;;;22.61;31.54;99925.30;430615;1270;141867;-56
2022/06/03 14:43:45;;;;;;;1.10;1.00;;;;;;;22.46;31.49;99909.38;430156;1270;141373;-55
2022/06/03 14:53:55;;;;;;;2.00;1.00;;;;;;;22.47;31.69;99900.91;434062;1270;147434;-55
2022/06/03 15:04:03;;;;;;;1.10;1.00;;;;;;;22.57;31.55;99889.05;432720;1269;144308;-53
2022/06/03 15:14:08;;;;;;;1.60;1.50;;;;;;;22.75;31.36;99879.18;431913;1269;143208;-55
2022/06/03 15:24:12;;;;;;;2.20;1.30;;;;;;;22.82;31.23;99870.92;431767;1269;141936;-54
2022/06/03 15:34:15;;;;;;;1.50;1.30;;;;;;;22.65;31.32;99863.37;431755;1270;141863;-54
2022/06/03 15:44:31;;;;;;;2.10;0.80;;;;;;;22.51;31.73;99853.05;430917;1270;141343;-56
2022/06/03 15:54:37;;;;;;;1.30;1.00;;;;;;;22.41;31.90;99854.87;432160;1270;140515;-55
2022/06/03 16:04:55;;;;;;;2.80;1.20;;;;;;;22.36;31.92;99859.64;432410;1270;141264;-54
2022/06/03 16:15:11;;;;;;;;;;;;;;;22.36;32.08;99860.71;430958;1270;146645;-55
2022/06/03 16:25:20;;;;;;;1.30;1.10;;;;;;;22.31;31.94;99852.92;432221;1270;171607;-56
2022/06/03 16:35:28;;;;;;;2.20;1.00;;;;;;;22.22;32.16;99845.83;430719;1270;141944;-55
2022/06/03 16:56:06;;;;;;;2.00;1.70;;;;;;;22.13;32.28;99846.67;430322;1270;141976;-55
2022/06/03 17:06:13;;;;;;;1.80;1.40;;;;;;;22.13;32.62;99843.61;434008;1270;140762;-55
2022/06/03 17:16:18;;;;;;;1.20;1.10;;;;;;;22.01;32.69;99839.22;432613;1271;142056;-55
2022/06/03 17:26:31;;;;;;;1.00;0.90;;;;;;;21.82;32.88;99839.46;431379;1269;141087;-55
2022/06/03 17:36:50;;;;;;;3.60;1.30;;;;;;;21.62;33.35;99853.48;431971;1271;144816;-55
2022/06/03 17:47:02;;;;;;;1.10;1.10;;;;;;;21.42;33.71;99841.89;433283;1271;145252;-56
2022/06/03 17:57:17;;;;;;;2.60;1.00;;;;;;;21.76;33.59;99830.84;432113;1270;141311;-56
2022/06/03 18:07:34;;;;;;;1.10;1.00;;;;;;;21.36;33.75;99823.66;432536;1271;141397;-56
2022/06/03 18:17:40;;;;;;;1.30;1.00;;;;;;;20.89;34.13;99819.27;430400;1270;142218;-56
2022/06/03 18:28:01;;;;;;;2.80;1.50;;;;;;;20.49;34.74;99808.39;430728;1271;141685;-54
2022/06/03 18:38:19;;;;;;;2.40;1.30;;;;;;;20.09;35.40;99800.32;432242;1270;142024;-56
2022/06/03 18:48:35;;;;;;;3.20;1.80;;;;;;;19.73;36.18;99796.70;431127;1270;141834;-56
2022/06/03 18:58:53;;;;;;;2.30;2.00;;;;;;;19.35;37.33;99801.56;431035;1271;140446;-55
2022/06/03 19:09:12;;;;;;;4.70;2.50;;;;;;;18.96;38.15;99791.23;431655;1270;140264;-54
2022/06/03 19:19:41;;;;;;;2.60;2.20;;;;;;;18.66;38.93;99789.46;431756;1270;143108;-54
2022/06/03 19:29:55;;;;;;;2.40;2.20;;;;;;;18.35;39.63;99804.00;433332;1270;140615;-55
2022/06/03 19:40:16;;;;;;;7.60;3.40;;;;;;;18.09;40.16;99820.92;434432;1269;141249;-55
2022/06/03 19:51:00;;;;;;;4.30;2.10;;;;;;;17.95;40.93;99825.50;430358;1270;144952;-63
2022/06/03 20:01:03;;;;;;;6.60;3.10;;;;;;;17.70;41.74;99813.43;431868;1270;140692;-56
2022/06/03 20:21:47;;;;;;;3.00;2.50;;;;;;;17.43;43.02;99803.46;433131;1270;140708;-55
2022/06/03 20:31:56;;;;;;;3.50;2.20;;;;;;;17.30;43.23;99811.73;430806;1270;352724;-56
2022/06/03 20:42:05;;;;;;;5.10;3.60;;;;;;;17.22;43.46;99817.67;432686;1269;146680;-55
2022/06/03 20:52:13;;;;;;;4.20;2.70;;;;;;;17.10;43.77;99819.98;431194;1270;141851;-55
2022/06/03 21:02:26;;;;;;;2.80;2.60;;;;;;;16.97;44.18;99824.64;431917;1270;142292;-55
2022/06/03 21:23:08;;;;;;;5.10;2.90;;;;;;;16.71;45.19;99833.52;433786;1270;140816;-56
2022/06/03 21:33:15;;;;;;;4.80;3.00;;;;;;;16.56;45.71;99825.66;440682;1270;142181;-57
2022/06/03 21:43:28;;;;;;;5.90;3.50;;;;;;;16.37;46.33;99817.85;440291;1270;141897;-57
2022/06/03 21:53:49;;;;;;;6.10;2.90;;;;;;;16.27;46.82;99813.23;435175;1270;143620;-55
2022/06/03 22:03:55;;;;;;;7.00;3.10;;;;;;;16.10;47.34;99809.13;432794;1270;145425;-63
2022/06/03 22:13:58;;;;;;;5.70;3.00;;;;;;;15.93;47.93;99810.24;441856;1270;141550;-56
2022/06/03 22:24:01;;;;;;;4.40;3.00;;;;;;;15.74;48.50;99805.90;447730;1269;141271;-57
2022/06/03 22:34:17;;;;;;;3.80;3.30;;;;;;;15.57;49.12;99800.94;442985;1268;141231;-54
2022/06/03 22:44:21;;;;;;;5.10;3.80;;;;;;;15.40;49.76;99792.48;432128;1270;195778;-55
2022/06/03 22:54:26;;;;;;;6.90;3.60;;;;;;;15.20;50.23;99802.48;434325;1269;141082;-54
2022/06/03 23:04:30;;;;;;;6.90;3.40;;;;;;;15.02;50.65;99797.38;433692;1270;146445;-55
2022/06/03 23:14:33;;;;;;;4.70;3.30;;;;;;;14.85;51.49;99801.91;431083;1270;145546;-56
2022/06/03 23:24:37;;;;;;;4.60;4.00;;;;;;;14.70;51.99;99795.98;433404;1269;142361;-54
2022/06/03 23:34:40;;;;;;;4.70;4.20;;;;;;;14.59;52.42;99789.63;436233;1270;141176;-55
2022/06/03 23:55:08;;;;;;;4.90;3.70;;;;;;;14.34;53.09;99772.81;440005;1269;141970;-56
